Kahului Airport Kahului US
ICAO: PHOG
IATA:
Category: Medium
Scheduled Services:

Elevation: 54 ft
TransAlt. 18000 ft.

Airport Communications:
MAUI APP/DEP:119.5
ATIS:128.6
MAUI CLNC DEL:120.6
CTAF:118.7
GND:121.9
MAUI RDO:123.6
MAUI TWR:118.7
UNICOM:122.95

PHOG Zoom In..

Runways:

(A) RW 02 length 6995 ft width 150 ft
ILS 110.10 / hdg 24

(B) RW 05 length 4990 ft width 150 ft
---- / hdg 54

(C) RW 20 length 6995 ft width 150 ft
---- / hdg 204

(D) RW 23 length 4990 ft width 150 ft
---- / hdg 234

Location; PHOG
Day. 22 / Time. 03.54 Zulu
* Altimeter: 29.99
* Temperature: 24° c. 75.2°f.
* Wind from: 040° Speed 11 kn.
Dewpoint: 20° c.
Visibility: 10 Statute Miles.
Clouds: Few 2500 ft.
Clouds: Scattered 4500 ft.
Clouds: Scattered 5500 ft.

PHOG 220354Z 04011KT 10SM FEW025 SCT045 SCT055 24/20 A2999 RMK AO2 SLP160 T02390200 $


Wind From 040°
Speed 11 kn.

jpsM music video
CHECK IT OUT

jpsM - It Moves..

 
jpsmedia.com for Web Design  worldairports.se 2018   terms of use